KMFI/MFI METAR and TAF weather

Enter ICAO airport designator
Station Type Date Time Source
KMFI METAR 2020/03/31 08:54 UTC NOAA

KMFI 310854Z AUTO 04007KT 10SM CLR 01/M04 A3013 RMK AO2 SLP213 T00111044 56018


Station Type Date Time Source
KMFI Decoded METAR 2020/03/31 08:54 UTC NOAA

MARSHFIELD MUNICIPAL AIRPORT, WI, United States (KMFI) 44-38N 90-11W 379M
Mar 31, 2020 - 04:54 AM EDT / 2020.03.31 0854 UTC
Wind: from the NE (040 degrees) at 8 MPH (7 KT):0
Visibility: 10 mile(s):0
Sky conditions: clear
Temperature: 34.0 F (1.1 C)
Windchill: 26 F (-3 C):1
Dew Point: 24.1 F (-4.4 C)
Relative Humidity: 66%
Pressure (altimeter): 30.13 in. Hg (1020 hPa)
Pressure tendency: 0.05 inches (1.8 hPa) lower than three hours ago
ob: KMFI 310854Z AUTO 04007KT 10SM CLR 01/M04 A3013 RMK AO2 SLP213 T00111044 56018
cycle: 9

Station Type Date Time Source
KMFI TAF UTC NOAA

Error!

Example: see airport list